sensor_id;sensor_type;location;lat;lon;timestamp;pressure;altitude;pressure_sealevel;temperature;humidity
83128;BME280;73148;50.988;11.034;2023-10-31T00:02:19;97266.41;;;18.88;66.66
83128;BME280;73148;50.988;11.034;2023-10-31T00:04:45;97258.56;;;18.88;66.75
83128;BME280;73148;50.988;11.034;2023-10-31T00:07:10;97263.91;;;18.87;66.43
83128;BME280;73148;50.988;11.034;2023-10-31T00:09:36;97252.34;;;18.77;66.64
83128;BME280;73148;50.988;11.034;2023-10-31T00:12:05;97253.41;;;18.87;66.32
83128;BME280;73148;50.988;11.034;2023-10-31T00:14:31;97254.16;;;18.89;66.32
83128;BME280;73148;50.988;11.034;2023-10-31T00:16:57;97259.50;;;18.87;66.38
83128;BME280;73148;50.988;11.034;2023-10-31T00:19:22;97256.03;;;18.87;66.34
83128;BME280;73148;50.988;11.034;2023-10-31T00:21:48;97263.06;;;18.86;66.34
83128;BME280;73148;50.988;11.034;2023-10-31T00:24:13;97258.66;;;18.87;66.26
83128;BME280;73148;50.988;11.034;2023-10-31T00:26:39;97236.38;;;18.67;65.89
83128;BME280;73148;50.988;11.034;2023-10-31T00:29:04;97264.75;;;18.87;66.46
83128;BME280;73148;50.988;11.034;2023-10-31T00:31:31;97265.69;;;18.86;66.38
83128;BME280;73148;50.988;11.034;2023-10-31T00:33:56;97262.97;;;18.88;66.53
83128;BME280;73148;50.988;11.034;2023-10-31T00:36:22;97259.50;;;18.87;66.19
83128;BME280;73148;50.988;11.034;2023-10-31T00:38:48;97261.16;;;18.88;66.33
83128;BME280;73148;50.988;11.034;2023-10-31T00:41:13;97268.22;;;18.88;66.47
83128;BME280;73148;50.988;11.034;2023-10-31T00:43:38;97264.75;;;18.87;66.25
83128;BME280;73148;50.988;11.034;2023-10-31T00:46:04;97253.63;;;18.84;66.45
83128;BME280;73148;50.988;11.034;2023-10-31T00:48:31;97253.72;;;18.82;66.43
83128;BME280;73148;50.988;11.034;2023-10-31T00:51:01;97252.78;;;18.83;66.33
83128;BME280;73148;50.988;11.034;2023-10-31T00:53:27;97252.16;;;18.80;66.30
83128;BME280;73148;50.988;11.034;2023-10-31T00:55:52;97251.09;;;18.82;66.24
83128;BME280;73148;50.988;11.034;2023-10-31T00:58:18;97253.81;;;18.81;66.26
83128;BME280;73148;50.988;11.034;2023-10-31T01:00:43;97255.50;;;18.82;66.34
83128;BME280;73148;50.988;11.034;2023-10-31T01:03:08;97254.00;;;18.78;66.49
83128;BME280;73148;50.988;11.034;2023-10-31T01:05:35;97255.59;;;18.80;66.29
83128;BME280;73148;50.988;11.034;2023-10-31T01:08:00;97250.34;;;18.80;66.01
83128;BME280;73148;50.988;11.034;2023-10-31T01:10:26;97249.53;;;18.80;66.38
83128;BME280;73148;50.988;11.034;2023-10-31T01:12:51;97244.38;;;18.78;66.02
83128;BME280;73148;50.988;11.034;2023-10-31T01:15:17;97249.63;;;18.78;66.19
83128;BME280;73148;50.988;11.034;2023-10-31T01:17:42;97252.34;;;18.77;66.42
83128;BME280;73148;50.988;11.034;2023-10-31T01:20:08;97250.56;;;18.77;65.93
83128;BME280;73148;50.988;11.034;2023-10-31T01:22:36;97224.59;;;18.60;66.29
83128;BME280;73148;50.988;11.034;2023-10-31T01:25:01;97250.75;;;18.74;66.50
83128;BME280;73148;50.988;11.034;2023-10-31T01:27:26;97247.19;;;18.75;66.33
83128;BME280;73148;50.988;11.034;2023-10-31T01:29:52;97219.34;;;18.60;66.23
83128;BME280;73148;50.988;11.034;2023-10-31T01:32:17;97244.47;;;18.77;66.03
83128;BME280;73148;50.988;11.034;2023-10-31T01:34:43;97244.56;;;18.75;66.17
83128;BME280;73148;50.988;11.034;2023-10-31T01:37:08;97246.34;;;18.75;66.36
83128;BME280;73148;50.988;11.034;2023-10-31T01:39:37;97233.97;;;18.77;66.27
83128;BME280;73148;50.988;11.034;2023-10-31T01:42:02;97119.91;;;18.06;66.09
83128;BME280;73148;50.988;11.034;2023-10-31T01:44:27;97231.44;;;18.75;66.12
83128;BME280;73148;50.988;11.034;2023-10-31T01:46:53;97222.88;;;18.73;65.97
83128;BME280;73148;50.988;11.034;2023-10-31T01:49:18;97222.63;;;18.76;65.78
83128;BME280;73148;50.988;11.034;2023-10-31T01:51:44;97218.34;;;18.75;65.98
83128;BME280;73148;50.988;11.034;2023-10-31T01:54:10;97148.09;;;18.41;65.90
83128;BME280;73148;50.988;11.034;2023-10-31T01:56:39;97205.22;;;18.75;65.77
83128;BME280;73148;50.988;11.034;2023-10-31T01:59:05;97204.50;;;18.73;65.91
83128;BME280;73148;50.988;11.034;2023-10-31T02:01:30;97214.03;;;18.74;66.07
83128;BME280;73148;50.988;11.034;2023-10-31T02:03:56;97200.06;;;18.74;66.04
83128;BME280;73148;50.988;11.034;2023-10-31T02:06:23;97199.25;;;18.73;65.99
83128;BME280;73148;50.988;11.034;2023-10-31T02:08:49;97204.50;;;18.73;65.87
83128;BME280;73148;50.988;11.034;2023-10-31T02:11:14;97190.53;;;18.73;65.71
83128;BME280;73148;50.988;11.034;2023-10-31T02:13:41;97186.13;;;18.73;65.64
83128;BME280;73148;50.988;11.034;2023-10-31T02:16:06;97179.09;;;18.74;65.70
83128;BME280;73148;50.988;11.034;2023-10-31T02:18:32;97179.84;;;18.76;65.65
83128;BME280;73148;50.988;11.034;2023-10-31T02:20:57;97180.88;;;18.73;65.82
83128;BME280;73148;50.988;11.034;2023-10-31T02:23:24;97186.00;;;18.75;65.49
83128;BME280;73148;50.988;11.034;2023-10-31T02:25:49;97188.53;;;18.76;65.64
83128;BME280;73148;50.988;11.034;2023-10-31T02:28:15;97196.63;;;18.73;65.36
83128;BME280;73148;50.988;11.034;2023-10-31T02:30:40;97185.91;;;18.76;65.58
83128;BME280;73148;50.988;11.034;2023-10-31T02:33:06;97186.97;;;18.74;65.59
83128;BME280;73148;50.988;11.034;2023-10-31T02:35:31;97187.63;;;18.77;65.54
83128;BME280;73148;50.988;11.034;2023-10-31T02:37:57;97185.81;;;18.78;65.52
83128;BME280;73148;50.988;11.034;2023-10-31T02:40:24;97188.44;;;18.78;65.29
83128;BME280;73148;50.988;11.034;2023-10-31T02:42:50;97187.63;;;18.77;65.52
83128;BME280;73148;50.988;11.034;2023-10-31T02:45:15;97183.28;;;18.76;65.37
83128;BME280;73148;50.988;11.034;2023-10-31T02:47:41;97194.63;;;18.77;65.40
83128;BME280;73148;50.988;11.034;2023-10-31T02:50:07;97198.09;;;18.77;65.30
83128;BME280;73148;50.988;11.034;2023-10-31T02:52:32;97202.31;;;18.80;65.12
83128;BME280;73148;50.988;11.034;2023-10-31T02:54:57;97214.56;;;18.79;65.33
83128;BME280;73148;50.988;11.034;2023-10-31T02:57:24;97222.34;;;18.81;65.15
83128;BME280;73148;50.988;11.034;2023-10-31T02:59:50;97233.78;;;18.80;65.14
83128;BME280;73148;50.988;11.034;2023-10-31T03:02:15;97236.41;;;18.80;64.98
83128;BME280;73148;50.988;11.034;2023-10-31T03:04:40;97236.19;;;18.83;65.16
83128;BME280;73148;50.988;11.034;2023-10-31T03:07:06;97224.13;;;18.80;65.14
83128;BME280;73148;50.988;11.034;2023-10-31T03:09:31;97227.16;;;18.87;64.91
83128;BME280;73148;50.988;11.034;2023-10-31T03:11:56;97235.13;;;18.85;64.87
83128;BME280;73148;50.988;11.034;2023-10-31T03:14:24;97238.72;;;18.84;64.99
83128;BME280;73148;50.988;11.034;2023-10-31T03:16:50;97237.75;;;18.85;64.91
83128;BME280;73148;50.988;11.034;2023-10-31T03:19:15;97238.59;;;18.86;65.13
83128;BME280;73148;50.988;11.034;2023-10-31T03:21:40;97238.59;;;18.86;64.94
83128;BME280;73148;50.988;11.034;2023-10-31T03:24:06;97239.66;;;18.83;64.85
83128;BME280;73148;50.988;11.034;2023-10-31T03:26:32;97250.78;;;18.87;64.72
83128;BME280;73148;50.988;11.034;2023-10-31T03:28:57;97252.56;;;18.86;64.79
83128;BME280;73148;50.988;11.034;2023-10-31T03:31:24;97248.16;;;18.87;64.46
83128;BME280;73148;50.988;11.034;2023-10-31T03:33:49;97249.00;;;18.87;64.56
83128;BME280;73148;50.988;11.034;2023-10-31T03:36:15;97254.06;;;18.90;64.29
83128;BME280;73148;50.988;11.034;2023-10-31T03:38:40;97256.03;;;18.87;64.59
83128;BME280;73148;50.988;11.034;2023-10-31T03:41:06;97262.13;;;18.87;64.41
83128;BME280;73148;50.988;11.034;2023-10-31T03:43:31;97231.31;;;18.64;64.04
83128;BME280;73148;50.988;11.034;2023-10-31T03:45:57;97266.41;;;18.88;64.09
83128;BME280;73148;50.988;11.034;2023-10-31T03:48:24;97273.34;;;18.89;64.00
83128;BME280;73148;50.988;11.034;2023-10-31T03:50:50;97271.38;;;18.93;63.58
83128;BME280;73148;50.988;11.034;2023-10-31T03:53:15;97278.28;;;18.94;63.52
83128;BME280;73148;50.988;11.034;2023-10-31T03:55:41;97278.91;;;18.97;63.40
83128;BME280;73148;50.988;11.034;2023-10-31T03:58:06;97291.94;;;18.99;63.31
83128;BME280;73148;50.988;11.034;2023-10-31T04:00:32;97289.66;;;18.94;63.56
83128;BME280;73148;50.988;11.034;2023-10-31T04:02:57;97290.75;;;18.78;63.36
83128;BME280;73148;50.988;11.034;2023-10-31T04:05:24;97307.34;;;18.91;63.49
83128;BME280;73148;50.988;11.034;2023-10-31T04:07:49;97317.56;;;18.95;62.97
83128;BME280;73148;50.988;11.034;2023-10-31T04:10:15;97308.94;;;18.93;63.14
83128;BME280;73148;50.988;11.034;2023-10-31T04:12:41;97313.47;;;18.91;62.99
83128;BME280;73148;50.988;11.034;2023-10-31T04:15:07;97316.72;;;18.95;62.53
83128;BME280;73148;50.988;11.034;2023-10-31T04:17:33;97317.91;;;19.03;62.29
83128;BME280;73148;50.988;11.034;2023-10-31T04:19:58;97334.03;;;18.97;62.22
83128;BME280;73148;50.988;11.034;2023-10-31T04:22:25;97305.44;;;18.80;62.28
83128;BME280;73148;50.988;11.034;2023-10-31T04:24:51;97335.94;;;18.95;61.92
83128;BME280;73148;50.988;11.034;2023-10-31T04:27:16;97339.41;;;18.96;61.96
83128;BME280;73148;50.988;11.034;2023-10-31T04:29:41;97346.44;;;18.95;61.85
83128;BME280;73148;50.988;11.034;2023-10-31T04:32:07;97354.41;;;18.94;61.74
83128;BME280;73148;50.988;11.034;2023-10-31T04:34:32;97321.59;;;18.74;61.21
83128;BME280;73148;50.988;11.034;2023-10-31T04:36:58;97349.34;;;18.91;61.69
83128;BME280;73148;50.988;11.034;2023-10-31T04:39:25;97349.25;;;18.92;61.20
83128;BME280;73148;50.988;11.034;2023-10-31T04:41:50;97343.28;;;18.90;61.30
83128;BME280;73148;50.988;11.034;2023-10-31T04:44:16;97341.78;;;18.86;61.11
83128;BME280;73148;50.988;11.034;2023-10-31T04:46:42;97347.75;;;18.88;61.34
83128;BME280;73148;50.988;11.034;2023-10-31T04:49:07;97348.28;;;18.93;60.92
83128;BME280;73148;50.988;11.034;2023-10-31T04:51:33;97358.06;;;18.91;60.85
83128;BME280;73148;50.988;11.034;2023-10-31T04:53:58;97354.69;;;18.89;60.74
83128;BME280;73148;50.988;11.034;2023-10-31T04:56:25;97358.56;;;18.84;60.91
83128;BME280;73148;50.988;11.034;2023-10-31T04:58:51;97361.28;;;18.82;60.89
83128;BME280;73148;50.988;11.034;2023-10-31T05:01:16;97371.56;;;18.85;60.64
83128;BME280;73148;50.988;11.034;2023-10-31T05:03:41;97369.16;;;18.82;60.35
83128;BME280;73148;50.988;11.034;2023-10-31T05:06:07;97370.22;;;18.80;60.60
83128;BME280;73148;50.988;11.034;2023-10-31T05:08:32;97367.59;;;18.80;60.63
83128;BME280;73148;50.988;11.034;2023-10-31T05:10:58;97372.59;;;18.83;60.28
83128;BME280;73148;50.988;11.034;2023-10-31T05:13:25;97353.50;;;18.81;60.10
83128;BME280;73148;50.988;11.034;2023-10-31T05:15:51;97359.81;;;18.78;60.12
83128;BME280;73148;50.988;11.034;2023-10-31T05:18:16;97359.72;;;18.80;60.17
83128;BME280;73148;50.988;11.034;2023-10-31T05:20:42;97367.59;;;18.80;59.79
83128;BME280;73148;50.988;11.034;2023-10-31T05:23:07;97365.16;;;18.77;59.65
83128;BME280;73148;50.988;11.034;2023-10-31T05:25:33;97360.75;;;18.77;59.67
83128;BME280;73148;50.988;11.034;2023-10-31T05:27:58;97366.81;;;18.78;59.34
83128;BME280;73148;50.988;11.034;2023-10-31T05:30:25;97366.19;;;18.74;59.41
83128;BME280;73148;50.988;11.034;2023-10-31T05:32:51;97372.16;;;18.76;59.08
83128;BME280;73148;50.988;11.034;2023-10-31T05:35:16;97380.25;;;18.73;59.21
83128;BME280;73148;50.988;11.034;2023-10-31T05:37:42;97376.13;;;18.69;58.81
83128;BME280;73148;50.988;11.034;2023-10-31T05:40:08;97384.09;;;18.68;59.33
83128;BME280;73148;50.988;11.034;2023-10-31T05:42:34;97393.75;;;18.67;59.16
83128;BME280;73148;50.988;11.034;2023-10-31T05:44:59;97399.63;;;18.71;59.14
83128;BME280;73148;50.988;11.034;2023-10-31T05:47:26;97398.03;;;18.68;59.12
83128;BME280;73148;50.988;11.034;2023-10-31T05:49:53;97394.78;;;18.65;59.04
83128;BME280;73148;50.988;11.034;2023-10-31T05:52:18;97399.16;;;18.64;59.46
83128;BME280;73148;50.988;11.034;2023-10-31T05:54:43;97404.41;;;18.64;59.72
83128;BME280;73148;50.988;11.034;2023-10-31T05:57:09;97415.03;;;18.63;59.41
83128;BME280;73148;50.988;11.034;2023-10-31T05:59:34;97415.75;;;18.65;59.32
83128;BME280;73148;50.988;11.034;2023-10-31T06:01:59;97421.00;;;18.65;59.24
83128;BME280;73148;50.988;11.034;2023-10-31T06:04:26;97416.41;;;18.68;58.45
83128;BME280;73148;50.988;11.034;2023-10-31T06:06:51;97426.34;;;18.63;59.32
83128;BME280;73148;50.988;11.034;2023-10-31T06:09:17;97424.50;;;18.65;58.83
83128;BME280;73148;50.988;11.034;2023-10-31T06:11:42;97437.97;;;18.59;59.17
83128;BME280;73148;50.988;11.034;2023-10-31T06:14:09;97428.59;;;18.55;60.09
83128;BME280;73148;50.988;11.034;2023-10-31T06:16:39;97446.88;;;18.57;60.19
83128;BME280;73148;50.988;11.034;2023-10-31T06:19:05;97441.00;;;18.53;59.37
83128;BME280;73148;50.988;11.034;2023-10-31T06:21:31;97443.44;;;18.56;59.63
83128;BME280;73148;50.988;11.034;2023-10-31T06:23:57;97441.00;;;18.53;59.14
83128;BME280;73148;50.988;11.034;2023-10-31T06:26:22;97452.03;;;18.58;59.39
83128;BME280;73148;50.988;11.034;2023-10-31T06:28:47;97463.25;;;18.60;58.82
83128;BME280;73148;50.988;11.034;2023-10-31T06:31:13;97462.34;;;18.61;58.72
83128;BME280;73148;50.988;11.034;2023-10-31T06:33:38;97469.44;;;18.59;58.85
83128;BME280;73148;50.988;11.034;2023-10-31T06:36:05;97475.00;;;18.55;58.79
83128;BME280;73148;50.988;11.034;2023-10-31T06:38:33;97480.22;;;18.55;58.75
83128;BME280;73148;50.988;11.034;2023-10-31T06:40:58;97484.72;;;18.53;58.80
83128;BME280;73148;50.988;11.034;2023-10-31T06:43:24;97473.03;;;18.44;58.95
83128;BME280;73148;50.988;11.034;2023-10-31T06:45:49;97488.19;;;18.53;59.12
83128;BME280;73148;50.988;11.034;2023-10-31T06:48:15;97491.00;;;18.50;59.32
83128;BME280;73148;50.988;11.034;2023-10-31T06:50:40;97479.56;;;18.51;59.11
83128;BME280;73148;50.988;11.034;2023-10-31T06:53:05;97486.50;;;18.52;59.20
83128;BME280;73148;50.988;11.034;2023-10-31T06:55:32;97497.91;;;18.51;59.28
83128;BME280;73148;50.988;11.034;2023-10-31T06:57:58;97505.06;;;18.49;59.09
83128;BME280;73148;50.988;11.034;2023-10-31T07:00:23;97509.34;;;18.50;59.39
83128;BME280;73148;50.988;11.034;2023-10-31T07:02:49;97523.22;;;18.52;59.33
83128;BME280;73148;50.988;11.034;2023-10-31T07:05:14;97521.50;;;18.51;59.08
83128;BME280;73148;50.988;11.034;2023-10-31T07:07:40;97529.28;;;18.53;59.12
83128;BME280;73148;50.988;11.034;2023-10-31T07:10:07;97525.84;;;18.52;58.95
83128;BME280;73148;50.988;11.034;2023-10-31T07:12:34;97525.63;;;18.55;59.07
83128;BME280;73148;50.988;11.034;2023-10-31T07:14:59;97522.28;;;18.53;59.06
83128;BME280;73148;50.988;11.034;2023-10-31T07:17:25;97516.84;;;18.56;58.96
83128;BME280;73148;50.988;11.034;2023-10-31T07:19:50;97522.94;;;18.57;58.65
83128;BME280;73148;50.988;11.034;2023-10-31T07:22:16;97530.78;;;18.57;58.80
83128;BME280;73148;50.988;11.034;2023-10-31T07:24:41;97520.31;;;18.57;58.18
83128;BME280;73148;50.988;11.034;2023-10-31T07:27:07;97536.41;;;18.65;58.14
83128;BME280;73148;50.988;11.034;2023-10-31T07:29:34;97544.19;;;18.66;58.29
83128;BME280;73148;50.988;11.034;2023-10-31T07:32:00;97542.31;;;18.68;58.34
83128;BME280;73148;50.988;11.034;2023-10-31T07:34:25;97542.53;;;18.65;58.14
83128;BME280;73148;50.988;11.034;2023-10-31T07:36:51;97540.81;;;18.64;58.43
83128;BME280;73148;50.988;11.034;2023-10-31T07:39:16;97546.06;;;18.64;58.10
83128;BME280;73148;50.988;11.034;2023-10-31T07:41:41;97555.72;;;18.64;58.56
83128;BME280;73148;50.988;11.034;2023-10-31T07:44:07;97552.53;;;18.59;58.34
83128;BME280;73148;50.988;11.034;2023-10-31T07:46:33;97558.53;;;18.61;58.55
83128;BME280;73148;50.988;11.034;2023-10-31T07:48:59;97568.16;;;18.60;58.76
83128;BME280;73148;50.988;11.034;2023-10-31T07:51:25;97569.78;;;18.63;58.79
83128;BME280;73148;50.988;11.034;2023-10-31T07:53:50;97564.25;;;18.67;58.71
83128;BME280;73148;50.988;11.034;2023-10-31T07:56:16;97565.09;;;18.68;58.09
83128;BME280;73148;50.988;11.034;2023-10-31T07:58:42;97565.81;;;18.70;58.18
83128;BME280;73148;50.988;11.034;2023-10-31T08:01:07;97571.28;;;18.67;58.61
83128;BME280;73148;50.988;11.034;2023-10-31T08:03:37;97574.00;;;18.65;58.78
83128;BME280;73148;50.988;11.034;2023-10-31T08:06:06;97576.41;;;18.68;58.63
83128;BME280;73148;50.988;11.034;2023-10-31T08:08:32;97577.09;;;18.72;58.46
83128;BME280;73148;50.988;11.034;2023-10-31T08:10:58;97570.91;;;18.73;58.14
83128;BME280;73148;50.988;11.034;2023-10-31T08:13:24;97589.66;;;18.67;58.56
83128;BME280;73148;50.988;11.034;2023-10-31T08:15:49;97578.31;;;18.66;58.14
83128;BME280;73148;50.988;11.034;2023-10-31T08:18:15;97585.31;;;18.66;58.29
83128;BME280;73148;50.988;11.034;2023-10-31T08:20:42;97590.38;;;18.69;58.73
83128;BME280;73148;50.988;11.034;2023-10-31T08:23:08;97560.19;;;18.62;57.74
83128;BME280;73148;50.988;11.034;2023-10-31T08:25:34;97597.03;;;18.74;57.95
83128;BME280;73148;50.988;11.034;2023-10-31T08:27:59;97592.63;;;18.75;57.99
83128;BME280;73148;50.988;11.034;2023-10-31T08:30:24;97589.91;;;18.76;57.82
83128;BME280;73148;50.988;11.034;2023-10-31T08:32:50;97594.25;;;18.77;57.49
83128;BME280;73148;50.988;11.034;2023-10-31T08:35:15;97587.97;;;18.80;57.58
83128;BME280;73148;50.988;11.034;2023-10-31T08:37:42;97585.97;;;18.83;57.27
83128;BME280;73148;50.988;11.034;2023-10-31T08:40:08;97596.94;;;18.90;56.89
83128;BME280;73148;50.988;11.034;2023-10-31T08:42:34;97601.25;;;18.91;57.13
83128;BME280;73148;50.988;11.034;2023-10-31T08:44:59;97608.28;;;18.90;57.18
83128;BME280;73148;50.988;11.034;2023-10-31T08:47:24;97618.50;;;18.95;56.80
83128;BME280;73148;50.988;11.034;2023-10-31T08:49:50;97634.53;;;18.90;57.15
83128;BME280;73148;50.988;11.034;2023-10-31T08:52:16;97631.16;;;18.88;57.07
83128;BME280;73148;50.988;11.034;2023-10-31T08:54:44;97639.56;;;18.93;56.53
83128;BME280;73148;50.988;11.034;2023-10-31T08:57:09;97641.38;;;18.93;56.70
83128;BME280;73148;50.988;11.034;2023-10-31T08:59:35;97646.53;;;18.94;56.76
83128;BME280;73148;50.988;11.034;2023-10-31T09:02:01;97645.41;;;18.98;56.75
83128;BME280;73148;50.988;11.034;2023-10-31T09:04:26;97641.84;;;18.99;56.60
83128;BME280;73148;50.988;11.034;2023-10-31T09:06:51;97644.00;;;19.07;56.55
83128;BME280;73148;50.988;11.034;2023-10-31T09:09:17;97650.38;;;19.03;58.06
83128;BME280;73148;50.988;11.034;2023-10-31T09:11:44;97661.03;;;19.00;59.45
83128;BME280;73148;50.988;11.034;2023-10-31T09:14:09;97647.75;;;19.03;59.25
83128;BME280;73148;50.988;11.034;2023-10-31T09:16:35;97654.03;;;19.00;60.27
83128;BME280;73148;50.988;11.034;2023-10-31T09:19:00;97654.78;;;19.02;59.94
83128;BME280;73148;50.988;11.034;2023-10-31T09:21:25;97655.78;;;19.00;60.13
83128;BME280;73148;50.988;11.034;2023-10-31T09:23:51;97646.91;;;19.02;61.12
83128;BME280;73148;50.988;11.034;2023-10-31T09:26:16;97631.91;;;19.04;60.04
83128;BME280;73148;50.988;11.034;2023-10-31T09:28:44;97643.63;;;19.13;59.16
83128;BME280;73148;50.988;11.034;2023-10-31T09:31:15;97632.84;;;19.17;58.85
83128;BME280;73148;50.988;11.034;2023-10-31T09:33:40;97625.63;;;19.21;58.90
83128;BME280;73148;50.988;11.034;2023-10-31T09:36:06;97620.38;;;19.21;58.94
83128;BME280;73148;50.988;11.034;2023-10-31T09:38:31;97634.41;;;19.20;58.45
83128;BME280;73148;50.988;11.034;2023-10-31T09:40:58;97627.31;;;19.22;58.27
83128;BME280;73148;50.988;11.034;2023-10-31T09:43:23;97636.81;;;19.24;58.39
83128;BME280;73148;50.988;11.034;2023-10-31T09:45:51;97648.03;;;19.26;56.85
83128;BME280;73148;50.988;11.034;2023-10-31T09:48:18;97658.47;;;19.28;58.12
83128;BME280;73148;50.988;11.034;2023-10-31T09:50:44;97664.75;;;19.25;57.97
83128;BME280;73148;50.988;11.034;2023-10-31T09:53:10;97662.59;;;19.32;57.16
83128;BME280;73148;50.988;11.034;2023-10-31T09:55:35;97664.00;;;19.37;57.53
83128;BME280;73148;50.988;11.034;2023-10-31T09:58:01;97679.56;;;19.40;57.75
83128;BME280;73148;50.988;11.034;2023-10-31T10:00:27;97674.31;;;19.40;57.14
83128;BME280;73148;50.988;11.034;2023-10-31T10:02:54;97669.16;;;19.39;57.74
83128;BME280;73148;50.988;11.034;2023-10-31T10:05:20;97668.84;;;19.43;57.43
83128;BME280;73148;50.988;11.034;2023-10-31T10:07:48;97675.03;;;19.42;58.19
83128;BME280;73148;50.988;11.034;2023-10-31T10:10:13;97665.75;;;19.23;56.98
83128;BME280;73148;50.988;11.034;2023-10-31T10:12:41;97678.72;;;19.40;56.66
83128;BME280;73148;50.988;11.034;2023-10-31T10:15:07;97692.97;;;19.36;56.46
83128;BME280;73148;50.988;11.034;2023-10-31T10:17:33;97678.81;;;19.38;56.55
83128;BME280;73148;50.988;11.034;2023-10-31T10:20:08;97683.50;;;19.33;56.01
83128;BME280;73148;50.988;11.034;2023-10-31T10:22:36;97676.47;;;19.34;56.74
83128;BME280;73148;50.988;11.034;2023-10-31T10:25:04;97670.91;;;19.38;56.59
83128;BME280;73148;50.988;11.034;2023-10-31T10:27:29;97669.25;;;19.37;56.78
83128;BME280;73148;50.988;11.034;2023-10-31T10:29:55;97671.59;;;19.42;56.34
83128;BME280;73148;50.988;11.034;2023-10-31T10:32:20;97663.41;;;19.46;56.07
83128;BME280;73148;50.988;11.034;2023-10-31T10:34:45;97669.22;;;19.51;55.95
83128;BME280;73148;50.988;11.034;2023-10-31T10:37:12;97663.13;;;19.51;55.88
83128;BME280;73148;50.988;11.034;2023-10-31T10:39:39;97662.09;;;19.53;56.04
83128;BME280;73148;50.988;11.034;2023-10-31T10:42:09;97670.72;;;19.55;56.00
83128;BME280;73148;50.988;11.034;2023-10-31T10:44:36;97653.00;;;19.45;56.05
83128;BME280;73148;50.988;11.034;2023-10-31T10:47:04;97675.50;;;19.49;56.23
83128;BME280;73148;50.988;11.034;2023-10-31T10:49:33;97672.88;;;19.49;56.53
83128;BME280;73148;50.988;11.034;2023-10-31T10:52:02;97687.34;;;19.56;56.12
83128;BME280;73148;50.988;11.034;2023-10-31T10:54:37;97692.66;;;19.54;56.09
83128;BME280;73148;50.988;11.034;2023-10-31T10:57:12;97682.63;;;19.61;55.43
83128;BME280;73148;50.988;11.034;2023-10-31T10:59:41;97687.78;;;19.62;55.60
83128;BME280;73148;50.988;11.034;2023-10-31T11:02:07;97683.75;;;19.57;55.52
83128;BME280;73148;50.988;11.034;2023-10-31T11:04:36;97681.22;;;19.55;55.75
83128;BME280;73148;50.988;11.034;2023-10-31T11:07:02;97685.91;;;19.50;55.54
83128;BME280;73148;50.988;11.034;2023-10-31T11:09:28;97690.63;;;19.45;55.62
83128;BME280;73148;50.988;11.034;2023-10-31T11:11:56;97689.13;;;19.41;55.48
83128;BME280;73148;50.988;11.034;2023-10-31T11:14:23;97692.03;;;19.37;55.96
83128;BME280;73148;50.988;11.034;2023-10-31T11:16:52;97695.41;;;19.39;55.88
83128;BME280;73148;50.988;11.034;2023-10-31T11:19:18;97688.66;;;19.35;55.82
83128;BME280;73148;50.988;11.034;2023-10-31T11:21:54;97689.47;;;19.35;55.57
83128;BME280;73148;50.988;11.034;2023-10-31T11:24:20;97713.72;;;19.40;55.37
83128;BME280;73148;50.988;11.034;2023-10-31T11:26:50;97704.41;;;19.35;55.49
83128;BME280;73148;50.988;11.034;2023-10-31T11:29:18;97727.75;;;19.39;55.62
83128;BME280;73148;50.988;11.034;2023-10-31T11:31:43;97718.97;;;19.40;55.62
83128;BME280;73148;50.988;11.034;2023-10-31T11:34:09;97730.38;;;19.39;55.73
83128;BME280;73148;50.988;11.034;2023-10-31T11:36:35;97733.00;;;19.39;55.68
83128;BME280;73148;50.988;11.034;2023-10-31T11:39:11;97731.88;;;19.43;55.69
83128;BME280;73148;50.988;11.034;2023-10-31T11:41:40;97728.53;;;19.41;56.19
83128;BME280;73148;50.988;11.034;2023-10-31T11:44:10;97742.03;;;19.49;55.92
83128;BME280;73148;50.988;11.034;2023-10-31T11:46:37;97738.47;;;19.50;55.78
83128;BME280;73148;50.988;11.034;2023-10-31T11:49:02;97743.06;;;19.47;55.24
83128;BME280;73148;50.988;11.034;2023-10-31T11:51:30;97744.94;;;19.45;55.84
83128;BME280;73148;50.988;11.034;2023-10-31T11:53:56;97741.38;;;19.46;55.95
83128;BME280;73148;50.988;11.034;2023-10-31T11:56:22;97746.44;;;19.49;56.20
83128;BME280;73148;50.988;11.034;2023-10-31T11:58:55;97747.47;;;19.46;55.98
83128;BME280;73148;50.988;11.034;2023-10-31T12:01:21;97745.88;;;19.44;55.99
83128;BME280;73148;50.988;11.034;2023-10-31T12:03:47;97748.41;;;19.45;56.11
83128;BME280;73148;50.988;11.034;2023-10-31T12:06:14;97740.53;;;19.45;56.44
83128;BME280;73148;50.988;11.034;2023-10-31T12:08:42;97739.75;;;19.43;56.10
83128;BME280;73148;50.988;11.034;2023-10-31T12:11:09;97750.84;;;19.48;55.98
83128;BME280;73148;50.988;11.034;2023-10-31T12:13:36;97681.88;;;19.17;56.00
83128;BME280;73148;50.988;11.034;2023-10-31T12:16:02;97740.91;;;19.53;55.78
83128;BME280;73148;50.988;11.034;2023-10-31T12:18:28;97740.91;;;19.53;55.29
83128;BME280;73148;50.988;11.034;2023-10-31T12:20:55;97716.41;;;19.25;55.61
83128;BME280;73148;50.988;11.034;2023-10-31T12:23:21;97759.78;;;19.46;55.89
83128;BME280;73148;50.988;11.034;2023-10-31T12:25:47;97765.75;;;19.48;55.40
83128;BME280;73148;50.988;11.034;2023-10-31T12:28:16;97764.09;;;19.47;55.40
83128;BME280;73148;50.988;11.034;2023-10-31T12:30:44;97773.72;;;19.46;55.18
83128;BME280;73148;50.988;11.034;2023-10-31T12:33:11;97783.19;;;19.49;55.61
83128;BME280;73148;50.988;11.034;2023-10-31T12:35:36;97777.56;;;19.41;55.25
83128;BME280;73148;50.988;11.034;2023-10-31T12:38:03;97783.75;;;19.40;55.65
83128;BME280;73148;50.988;11.034;2023-10-31T12:40:30;97786.88;;;19.46;55.25
83128;BME280;73148;50.988;11.034;2023-10-31T12:42:55;97787.16;;;19.42;54.86
83128;BME280;73148;50.988;11.034;2023-10-31T12:45:21;97786.38;;;19.40;55.39